Aviation Digital Data Service (ADDS)

Output produced by METARs form (1843 UTC 19 August 2019)
found at http://www.aviationweather.gov/metar/data/
 
METAR text: YMAV 191830Z AUTO 29017KT 9999 // SCT032 BKN045 09/07 Q1022
Conditions at: YMAV (AVALON AIRPORT , AU) observed 1830 UTC 19 August 2019
Temperature: 9.0°C (48°F)
Dewpoint: 7.0°C (45°F) [RH = 87%]
Pressure (altimeter): 30.18 inches Hg (1022.0 mb)
Winds: from the WNW (290 degrees) at 20 MPH (17 knots; 8.7 m/s)
Visibility: 6 or more miles (10+ km)
Ceiling: 4500 feet AGL
Clouds: scattered clouds at 3200 feet AGL
broken clouds at 4500 feet AGL
Weather: no significant weather observed at this time

METAR text: YMAV 191800Z AUTO 29018KT 9999 // SCT040 SCT045 09/07 Q1022
Conditions at: YMAV (AVALON AIRPORT , AU) observed 1800 UTC 19 August 2019
Temperature: 9.0°C (48°F)
Dewpoint: 7.0°C (45°F) [RH = 87%]
Pressure (altimeter): 30.18 inches Hg (1022.0 mb)
Winds: from the WNW (290 degrees) at 21 MPH (18 knots; 9.3 m/s)
Visibility: 6 or more miles (10+ km)
Ceiling: at least 12,000 feet AGL
Clouds: scattered clouds at 4000 feet AGL
scattered clouds at 4500 feet AGL
Weather: no significant weather observed at this time

METAR text: YMAV 191730Z AUTO 29021KT 9999 // SCT042 09/07 Q1022 RF00.0/000.4
Conditions at: YMAV (AVALON AIRPORT , AU) observed 1730 UTC 19 August 2019
Temperature: 9.0°C (48°F)
Dewpoint: 7.0°C (45°F) [RH = 87%]
Pressure (altimeter): 30.18 inches Hg (1022.0 mb)
Winds: from the WNW (290 degrees) at 24 MPH (21 knots; 10.8 m/s)
Visibility: 6 or more miles (10+ km)
Ceiling: at least 12,000 feet AGL
Clouds: scattered clouds at 4200 feet AGL
Weather: no significant weather observed at this time

METAR text: YMAV 191700Z AUTO 29018KT 9999 // BKN045 09/07 Q1022 RF00.0/000.4
Conditions at: YMAV (AVALON AIRPORT , AU) observed 1700 UTC 19 August 2019
Temperature: 9.0°C (48°F)
Dewpoint: 7.0°C (45°F) [RH = 87%]
Pressure (altimeter): 30.18 inches Hg (1022.0 mb)
Winds: from the WNW (290 degrees) at 21 MPH (18 knots; 9.3 m/s)
Visibility: 6 or more miles (10+ km)
Ceiling: 4500 feet AGL
Clouds: broken clouds at 4500 feet AGL
Weather: no significant weather observed at this time

METAR text: YMAV 191630Z AUTO 29017KT 9999 // SCT024 SCT033 OVC045 09/07 Q1023
Conditions at: YMAV (AVALON AIRPORT , AU) observed 1630 UTC 19 August 2019
Temperature: 9.0°C (48°F)
Dewpoint: 7.0°C (45°F) [RH = 87%]
Pressure (altimeter): 30.21 inches Hg (1023.0 mb)
Winds: from the WNW (290 degrees) at 20 MPH (17 knots; 8.7 m/s)
Visibility: 6 or more miles (10+ km)
Ceiling: 4500 feet AGL
Clouds: scattered clouds at 2400 feet AGL
scattered clouds at 3300 feet AGL
overcast cloud deck at 4500 feet AGL
Weather: no significant weather observed at this time

METAR text: YMAV 191600Z AUTO 29016KT 9999 // SCT024 BKN043 BKN051 09/07 Q1023
Conditions at: YMAV (AVALON AIRPORT , AU) observed 1600 UTC 19 August 2019
Temperature: 9.0°C (48°F)
Dewpoint: 7.0°C (45°F) [RH = 87%]
Pressure (altimeter): 30.21 inches Hg (1023.0 mb)
Winds: from the WNW (290 degrees) at 18 MPH (16 knots; 8.2 m/s)
Visibility: 6 or more miles (10+ km)
Ceiling: 4300 feet AGL
Clouds: scattered clouds at 2400 feet AGL
broken clouds at 4300 feet AGL
broken clouds at 5100 feet AGL
Weather: no significant weather observed at this time

METAR text: YMAV 191530Z AUTO 29017KT 9999 // SCT035 BKN053 09/07 Q1023
Conditions at: YMAV (AVALON AIRPORT , AU) observed 1530 UTC 19 August 2019
Temperature: 9.0°C (48°F)
Dewpoint: 7.0°C (45°F) [RH = 87%]
Pressure (altimeter): 30.21 inches Hg (1023.0 mb)
Winds: from the WNW (290 degrees) at 20 MPH (17 knots; 8.7 m/s)
Visibility: 6 or more miles (10+ km)
Ceiling: 5300 feet AGL
Clouds: scattered clouds at 3500 feet AGL
broken clouds at 5300 feet AGL
Weather: no significant weather observed at this time

METAR text: YMAV 191500Z AUTO 29016KT 9999 // SCT019 09/07 Q1023 RF00.0/000.4
Conditions at: YMAV (AVALON AIRPORT , AU) observed 1500 UTC 19 August 2019
Temperature: 9.0°C (48°F)
Dewpoint: 7.0°C (45°F) [RH = 87%]
Pressure (altimeter): 30.21 inches Hg (1023.0 mb)
Winds: from the WNW (290 degrees) at 18 MPH (16 knots; 8.2 m/s)
Visibility: 6 or more miles (10+ km)
Ceiling: at least 12,000 feet AGL
Clouds: scattered clouds at 1900 feet AGL
Weather: no significant weather observed at this time

METAR text: YMAV 191430Z AUTO 29016KT 9999 // SCT019 08/07 Q1023 RF00.0/000.4
Conditions at: YMAV (AVALON AIRPORT , AU) observed 1430 UTC 19 August 2019
Temperature: 8.0°C (46°F)
Dewpoint: 7.0°C (45°F) [RH = 93%]
Pressure (altimeter): 30.21 inches Hg (1023.0 mb)
Winds: from the WNW (290 degrees) at 18 MPH (16 knots; 8.2 m/s)
Visibility: 6 or more miles (10+ km)
Ceiling: at least 12,000 feet AGL
Clouds: scattered clouds at 1900 feet AGL
Weather: no significant weather observed at this time

METAR text: YMAV 191400Z AUTO 29017KT 9999 // BKN021 OVC028 09/07 Q1023
Conditions at: YMAV (AVALON AIRPORT , AU) observed 1400 UTC 19 August 2019
Temperature: 9.0°C (48°F)
Dewpoint: 7.0°C (45°F) [RH = 87%]
Pressure (altimeter): 30.21 inches Hg (1023.0 mb)
Winds: from the WNW (290 degrees) at 20 MPH (17 knots; 8.7 m/s)
Visibility: 6 or more miles (10+ km)
Ceiling: 2100 feet AGL
Clouds: broken clouds at 2100 feet AGL
overcast cloud deck at 2800 feet AGL
Weather: no significant weather observed at this time

METAR text: YMAV 191335Z AUTO 29017G28KT 9999 // SCT017 SCT034 BKN049 09/07 Q1023
Conditions at: YMAV (AVALON AIRPORT , AU) observed 1335 UTC 19 August 2019
Temperature: 9.0°C (48°F)
Dewpoint: 7.0°C (45°F) [RH = 87%]
Pressure (altimeter): 30.21 inches Hg (1023.0 mb)
Winds: from the WNW (290 degrees) at 20 MPH (17 knots; 8.7 m/s)
gusting to 32 MPH (28 knots; 14.4 m/s)
Visibility: 6 or more miles (10+ km)
Ceiling: 4900 feet AGL
Clouds: scattered clouds at 1700 feet AGL
scattered clouds at 3400 feet AGL
broken clouds at 4900 feet AGL
Weather: no significant weather observed at this time

METAR text: YMAV 191300Z AUTO 29017KT 9999 // SCT025 BKN032 09/06 Q1023
Conditions at: YMAV (AVALON AIRPORT , AU) observed 1300 UTC 19 August 2019
Temperature: 9.0°C (48°F)
Dewpoint: 6.0°C (43°F) [RH = 81%]
Pressure (altimeter): 30.21 inches Hg (1023.0 mb)
Winds: from the WNW (290 degrees) at 20 MPH (17 knots; 8.7 m/s)
Visibility: 6 or more miles (10+ km)
Ceiling: 3200 feet AGL
Clouds: scattered clouds at 2500 feet AGL
broken clouds at 3200 feet AGL
Weather: no significant weather observed at this time

METAR text: YMAV 191230Z AUTO 29017KT 9999 // BKN034 09/06 Q1023 RF00.0/000.4
Conditions at: YMAV (AVALON AIRPORT , AU) observed 1230 UTC 19 August 2019
Temperature: 9.0°C (48°F)
Dewpoint: 6.0°C (43°F) [RH = 81%]
Pressure (altimeter): 30.21 inches Hg (1023.0 mb)
Winds: from the WNW (290 degrees) at 20 MPH (17 knots; 8.7 m/s)
Visibility: 6 or more miles (10+ km)
Ceiling: 3400 feet AGL
Clouds: broken clouds at 3400 feet AGL
Weather: no significant weather observed at this time

METAR text: YMAV 191200Z AUTO 29017KT 9999 // SCT044 09/06 Q1023 RF00.0/000.4
Conditions at: YMAV (AVALON AIRPORT , AU) observed 1200 UTC 19 August 2019
Temperature: 9.0°C (48°F)
Dewpoint: 6.0°C (43°F) [RH = 81%]
Pressure (altimeter): 30.21 inches Hg (1023.0 mb)
Winds: from the WNW (290 degrees) at 20 MPH (17 knots; 8.7 m/s)
Visibility: 6 or more miles (10+ km)
Ceiling: at least 12,000 feet AGL
Clouds: scattered clouds at 4400 feet AGL
Weather: no significant weather observed at this time

METAR text: YMAV 191130Z AUTO 30016KT 9999 // NCD 09/06 Q1023 RF00.0/000.4
Conditions at: YMAV (AVALON AIRPORT , AU) observed 1130 UTC 19 August 2019
Temperature: 9.0°C (48°F)
Dewpoint: 6.0°C (43°F) [RH = 81%]
Pressure (altimeter): 30.21 inches Hg (1023.0 mb)
Winds: from the WNW (300 degrees) at 18 MPH (16 knots; 8.2 m/s)
Visibility: 6 or more miles (10+ km)
Ceiling: at least 12,000 feet AGL
Clouds: sky clear below 12,000 feet AGL
Weather: no significant weather observed at this time

METAR text: YMAV 191100Z AUTO 30015KT 9999 // SCT042 09/07 Q1023 RF00.0/000.4
Conditions at: YMAV (AVALON AIRPORT , AU) observed 1100 UTC 19 August 2019
Temperature: 9.0°C (48°F)
Dewpoint: 7.0°C (45°F) [RH = 87%]
Pressure (altimeter): 30.21 inches Hg (1023.0 mb)
Winds: from the WNW (300 degrees) at 17 MPH (15 knots; 7.7 m/s)
Visibility: 6 or more miles (10+ km)
Ceiling: at least 12,000 feet AGL
Clouds: scattered clouds at 4200 feet AGL
Weather: no significant weather observed at this time

METAR text: YMAV 191030Z AUTO 30009KT 9999 // SCT039 SCT054 08/06 Q1023
Conditions at: YMAV (AVALON AIRPORT , AU) observed 1030 UTC 19 August 2019
Temperature: 8.0°C (46°F)
Dewpoint: 6.0°C (43°F) [RH = 87%]
Pressure (altimeter): 30.21 inches Hg (1023.0 mb)
Winds: from the WNW (300 degrees) at 10 MPH (9 knots; 4.6 m/s)
Visibility: 6 or more miles (10+ km)
Ceiling: at least 12,000 feet AGL
Clouds: scattered clouds at 3900 feet AGL
scattered clouds at 5400 feet AGL
Weather: no significant weather observed at this time

METAR text: YMAV 191000Z AUTO 29011KT 9999 // NCD 08/06 Q1023 RF00.0/000.4
Conditions at: YMAV (AVALON AIRPORT , AU) observed 1000 UTC 19 August 2019
Temperature: 8.0°C (46°F)
Dewpoint: 6.0°C (43°F) [RH = 87%]
Pressure (altimeter): 30.21 inches Hg (1023.0 mb)
Winds: from the WNW (290 degrees) at 13 MPH (11 knots; 5.7 m/s)
Visibility: 6 or more miles (10+ km)
Ceiling: at least 12,000 feet AGL
Clouds: sky clear below 12,000 feet AGL
Weather: no significant weather observed at this time

METAR text: YMAV 190930Z AUTO 31011KT 9999 // NCD 08/05 Q1023 RF00.0/000.4
Conditions at: YMAV (AVALON AIRPORT , AU) observed 0930 UTC 19 August 2019
Temperature: 8.0°C (46°F)
Dewpoint: 5.0°C (41°F) [RH = 81%]
Pressure (altimeter): 30.21 inches Hg (1023.0 mb)
Winds: from the NW (310 degrees) at 13 MPH (11 knots; 5.7 m/s)
Visibility: 6 or more miles (10+ km)
Ceiling: at least 12,000 feet AGL
Clouds: sky clear below 12,000 feet AGL
Weather: no significant weather observed at this time

METAR text: YMAV 190900Z AUTO 31009KT 9999 // NCD 08/05 Q1022 RF00.0/000.4
Conditions at: YMAV (AVALON AIRPORT , AU) observed 0900 UTC 19 August 2019
Temperature: 8.0°C (46°F)
Dewpoint: 5.0°C (41°F) [RH = 81%]
Pressure (altimeter): 30.18 inches Hg (1022.0 mb)
Winds: from the NW (310 degrees) at 10 MPH (9 knots; 4.6 m/s)
Visibility: 6 or more miles (10+ km)
Ceiling: at least 12,000 feet AGL
Clouds: sky clear below 12,000 feet AGL
Weather: no significant weather observed at this time

METAR text: YMAV 190830Z AUTO 28013KT 9999 // NCD 09/06 Q1022 RF00.0/000.4
Conditions at: YMAV (AVALON AIRPORT , AU) observed 0830 UTC 19 August 2019
Temperature: 9.0°C (48°F)
Dewpoint: 6.0°C (43°F) [RH = 81%]
Pressure (altimeter): 30.18 inches Hg (1022.0 mb)
Winds: from the W (280 degrees) at 15 MPH (13 knots; 6.7 m/s)
Visibility: 6 or more miles (10+ km)
Ceiling: at least 12,000 feet AGL
Clouds: sky clear below 12,000 feet AGL
Weather: no significant weather observed at this time

METAR text: YMAV 190800Z AUTO 29014KT 9999 // NCD 09/06 Q1021 RF00.0/000.4
Conditions at: YMAV (AVALON AIRPORT , AU) observed 0800 UTC 19 August 2019
Temperature: 9.0°C (48°F)
Dewpoint: 6.0°C (43°F) [RH = 81%]
Pressure (altimeter): 30.15 inches Hg (1021.0 mb)
Winds: from the WNW (290 degrees) at 16 MPH (14 knots; 7.2 m/s)
Visibility: 6 or more miles (10+ km)
Ceiling: at least 12,000 feet AGL
Clouds: sky clear below 12,000 feet AGL
Weather: no significant weather observed at this time

METAR text: YMAV 190730Z AUTO 28014KT 9999 // NCD 10/05 Q1021 RF00.0/000.4
Conditions at: YMAV (AVALON AIRPORT , AU) observed 0730 UTC 19 August 2019
Temperature: 10.0°C (50°F)
Dewpoint: 5.0°C (41°F) [RH = 71%]
Pressure (altimeter): 30.15 inches Hg (1021.0 mb)
Winds: from the W (280 degrees) at 16 MPH (14 knots; 7.2 m/s)
Visibility: 6 or more miles (10+ km)
Ceiling: at least 12,000 feet AGL
Clouds: sky clear below 12,000 feet AGL
Weather: no significant weather observed at this time

METAR text: YMAV 190700Z AUTO 28017KT 9999 // SCT043 SCT052 10/05 Q1021
Conditions at: YMAV (AVALON AIRPORT , AU) observed 0700 UTC 19 August 2019
Temperature: 10.0°C (50°F)
Dewpoint: 5.0°C (41°F) [RH = 71%]
Pressure (altimeter): 30.15 inches Hg (1021.0 mb)
Winds: from the W (280 degrees) at 20 MPH (17 knots; 8.7 m/s)
Visibility: 6 or more miles (10+ km)
Ceiling: at least 12,000 feet AGL
Clouds: scattered clouds at 4300 feet AGL
scattered clouds at 5200 feet AGL
Weather: no significant weather observed at this time

METAR text: YMAV 190636Z AUTO 27017G28KT 9999 // NCD 10/06 Q1021 RF00.0/000.4
Conditions at: YMAV (AVALON AIRPORT , AU) observed 0636 UTC 19 August 2019
Temperature: 10.0°C (50°F)
Dewpoint: 6.0°C (43°F) [RH = 76%]
Pressure (altimeter): 30.15 inches Hg (1021.0 mb)
Winds: from the W (270 degrees) at 20 MPH (17 knots; 8.7 m/s)
gusting to 32 MPH (28 knots; 14.4 m/s)
Visibility: 6 or more miles (10+ km)
Ceiling: at least 12,000 feet AGL
Clouds: sky clear below 12,000 feet AGL
Weather: no significant weather observed at this time

METAR text: YMAV 190600Z AUTO 27016KT 9999 // SCT029 SCT044 BKN051 10/07 Q1020
Conditions at: YMAV (AVALON AIRPORT , AU) observed 0600 UTC 19 August 2019
Temperature: 10.0°C (50°F)
Dewpoint: 7.0°C (45°F) [RH = 82%]
Pressure (altimeter): 30.12 inches Hg (1020.0 mb)
Winds: from the W (270 degrees) at 18 MPH (16 knots; 8.2 m/s)
Visibility: 6 or more miles (10+ km)
Ceiling: 5100 feet AGL
Clouds: scattered clouds at 2900 feet AGL
scattered clouds at 4400 feet AGL
broken clouds at 5100 feet AGL
Weather: no significant weather observed at this time

METAR text: YMAV 190530Z AUTO 27016KT 9999 // SCT033 SCT040 11/06 Q1020
Conditions at: YMAV (AVALON AIRPORT , AU) observed 0530 UTC 19 August 2019
Temperature: 11.0°C (52°F)
Dewpoint: 6.0°C (43°F) [RH = 71%]
Pressure (altimeter): 30.12 inches Hg (1020.0 mb)
Winds: from the W (270 degrees) at 18 MPH (16 knots; 8.2 m/s)
Visibility: 6 or more miles (10+ km)
Ceiling: at least 12,000 feet AGL
Clouds: scattered clouds at 3300 feet AGL
scattered clouds at 4000 feet AGL
Weather: no significant weather observed at this time

METAR text: YMAV 190500Z AUTO 27013KT 9999 // SCT029 SCT040 SCT053 11/08 Q1020
Conditions at: YMAV (AVALON AIRPORT , AU) observed 0500 UTC 19 August 2019
Temperature: 11.0°C (52°F)
Dewpoint: 8.0°C (46°F) [RH = 82%]
Pressure (altimeter): 30.12 inches Hg (1020.0 mb)
Winds: from the W (270 degrees) at 15 MPH (13 knots; 6.7 m/s)
Visibility: 6 or more miles (10+ km)
Ceiling: at least 12,000 feet AGL
Clouds: scattered clouds at 2900 feet AGL
scattered clouds at 4000 feet AGL
scattered clouds at 5300 feet AGL
Weather: no significant weather observed at this time

METAR text: YMAV 190436Z AUTO 27019G29KT 9999 // SCT031 SCT040 BKN047 10/06 Q1020
Conditions at: YMAV (AVALON AIRPORT , AU) observed 0436 UTC 19 August 2019
Temperature: 10.0°C (50°F)
Dewpoint: 6.0°C (43°F) [RH = 76%]
Pressure (altimeter): 30.12 inches Hg (1020.0 mb)
Winds: from the W (270 degrees) at 22 MPH (19 knots; 9.8 m/s)
gusting to 33 MPH (29 knots; 14.9 m/s)
Visibility: 6 or more miles (10+ km)
Ceiling: 4700 feet AGL
Clouds: scattered clouds at 3100 feet AGL
scattered clouds at 4000 feet AGL
broken clouds at 4700 feet AGL
Weather: no significant weather observed at this time

METAR text: YMAV 190410Z AUTO 27017G27KT 9999 // SCT038 12/07 Q1019 RF00.0/000.2
Conditions at: YMAV (AVALON AIRPORT , AU) observed 0410 UTC 19 August 2019
Temperature: 12.0°C (54°F)
Dewpoint: 7.0°C (45°F) [RH = 71%]
Pressure (altimeter): 30.09 inches Hg (1019.0 mb)
Winds: from the W (270 degrees) at 20 MPH (17 knots; 8.7 m/s)
gusting to 31 MPH (27 knots; 13.9 m/s)
Visibility: 6 or more miles (10+ km)
Ceiling: at least 12,000 feet AGL
Clouds: scattered clouds at 3800 feet AGL
Weather: no significant weather observed at this time

METAR text: YMAV 190400Z AUTO 28019KT 9999 // SCT055 SCT078 11/06 Q1019
Conditions at: YMAV (AVALON AIRPORT , AU) observed 0400 UTC 19 August 2019
Temperature: 11.0°C (52°F)
Dewpoint: 6.0°C (43°F) [RH = 71%]
Pressure (altimeter): 30.09 inches Hg (1019.0 mb)
Winds: from the W (280 degrees) at 22 MPH (19 knots; 9.8 m/s)
Visibility: 6 or more miles (10+ km)
Ceiling: at least 12,000 feet AGL
Clouds: scattered clouds at 5500 feet AGL
scattered clouds at 7800 feet AGL
Weather: no significant weather observed at this time

METAR text: YMAV 190357Z AUTO 27017G27KT 9999 // SCT049 SCT059 SCT078 10/06 Q1019
Conditions at: YMAV (AVALON AIRPORT , AU) observed 0357 UTC 19 August 2019
Temperature: 10.0°C (50°F)
Dewpoint: 6.0°C (43°F) [RH = 76%]
Pressure (altimeter): 30.09 inches Hg (1019.0 mb)
Winds: from the W (270 degrees) at 20 MPH (17 knots; 8.7 m/s)
gusting to 31 MPH (27 knots; 13.9 m/s)
Visibility: 6 or more miles (10+ km)
Ceiling: at least 12,000 feet AGL
Clouds: scattered clouds at 4900 feet AGL
scattered clouds at 5900 feet AGL
scattered clouds at 7800 feet AGL
Weather: no significant weather observed at this time

METAR text: YMAV 190330Z AUTO 26020KT 9999 // SCT031 SCT046 BKN053 09/05 Q1019
Conditions at: YMAV (AVALON AIRPORT , AU) observed 0330 UTC 19 August 2019
Temperature: 9.0°C (48°F)
Dewpoint: 5.0°C (41°F) [RH = 76%]
Pressure (altimeter): 30.09 inches Hg (1019.0 mb)
Winds: from the W (260 degrees) at 23 MPH (20 knots; 10.3 m/s)
Visibility: 6 or more miles (10+ km)
Ceiling: 5300 feet AGL
Clouds: scattered clouds at 3100 feet AGL
scattered clouds at 4600 feet AGL
broken clouds at 5300 feet AGL
Weather: no significant weather observed at this time

METAR text: YMAV 190300Z AUTO 27019KT 9999 // SCT031 SCT049 11/06 Q1019
Conditions at: YMAV (AVALON AIRPORT , AU) observed 0300 UTC 19 August 2019
Temperature: 11.0°C (52°F)
Dewpoint: 6.0°C (43°F) [RH = 71%]
Pressure (altimeter): 30.09 inches Hg (1019.0 mb)
Winds: from the W (270 degrees) at 22 MPH (19 knots; 9.8 m/s)
Visibility: 6 or more miles (10+ km)
Ceiling: at least 12,000 feet AGL
Clouds: scattered clouds at 3100 feet AGL
scattered clouds at 4900 feet AGL
Weather: no significant weather observed at this time

METAR text: YMAV 190230Z AUTO 26016G27KT 9999 // SCT026 BKN031 BKN039 09/06 Q1019
Conditions at: YMAV (AVALON AIRPORT , AU) observed 0230 UTC 19 August 2019
Temperature: 9.0°C (48°F)
Dewpoint: 6.0°C (43°F) [RH = 81%]
Pressure (altimeter): 30.09 inches Hg (1019.0 mb)
Winds: from the W (260 degrees) at 18 MPH (16 knots; 8.2 m/s)
gusting to 31 MPH (27 knots; 13.9 m/s)
Visibility: 6 or more miles (10+ km)
Ceiling: 3100 feet AGL
Clouds: scattered clouds at 2600 feet AGL
broken clouds at 3100 feet AGL
broken clouds at 3900 feet AGL
Weather: no significant weather observed at this time

METAR text: YMAV 190213Z AUTO 26016G26KT 9999 // BKN028 BKN034 OVC046 09/07 Q1019
Conditions at: YMAV (AVALON AIRPORT , AU) observed 0213 UTC 19 August 2019
Temperature: 9.0°C (48°F)
Dewpoint: 7.0°C (45°F) [RH = 87%]
Pressure (altimeter): 30.09 inches Hg (1019.0 mb)
Winds: from the W (260 degrees) at 18 MPH (16 knots; 8.2 m/s)
gusting to 30 MPH (26 knots; 13.4 m/s)
Visibility: 6 or more miles (10+ km)
Ceiling: 2800 feet AGL
Clouds: broken clouds at 2800 feet AGL
broken clouds at 3400 feet AGL
overcast cloud deck at 4600 feet AGL
Weather: no significant weather observed at this time

METAR text: YMAV 190200Z AUTO 29018KT 9999 // BKN028 BKN032 10/06 Q1019
Conditions at: YMAV (AVALON AIRPORT , AU) observed 0200 UTC 19 August 2019
Temperature: 10.0°C (50°F)
Dewpoint: 6.0°C (43°F) [RH = 76%]
Pressure (altimeter): 30.09 inches Hg (1019.0 mb)
Winds: from the WNW (290 degrees) at 21 MPH (18 knots; 9.3 m/s)
Visibility: 6 or more miles (10+ km)
Ceiling: 2800 feet AGL
Clouds: broken clouds at 2800 feet AGL
broken clouds at 3200 feet AGL
Weather: no significant weather observed at this time

METAR text: YMAV 190130Z AUTO 28018KT 9999 // SCT026 11/06 Q1019 RF00.0/000.0
Conditions at: YMAV (AVALON AIRPORT , AU) observed 0130 UTC 19 August 2019
Temperature: 11.0°C (52°F)
Dewpoint: 6.0°C (43°F) [RH = 71%]
Pressure (altimeter): 30.09 inches Hg (1019.0 mb)
Winds: from the W (280 degrees) at 21 MPH (18 knots; 9.3 m/s)
Visibility: 6 or more miles (10+ km)
Ceiling: at least 12,000 feet AGL
Clouds: scattered clouds at 2600 feet AGL
Weather: no significant weather observed at this time

METAR text: YMAV 190100Z AUTO 28019KT 9999 // SCT024 SCT068 09/05 Q1019
Conditions at: YMAV (AVALON AIRPORT , AU) observed 0100 UTC 19 August 2019
Temperature: 9.0°C (48°F)
Dewpoint: 5.0°C (41°F) [RH = 76%]
Pressure (altimeter): 30.09 inches Hg (1019.0 mb)
Winds: from the W (280 degrees) at 22 MPH (19 knots; 9.8 m/s)
Visibility: 6 or more miles (10+ km)
Ceiling: at least 12,000 feet AGL
Clouds: scattered clouds at 2400 feet AGL
scattered clouds at 6800 feet AGL
Weather: no significant weather observed at this time

METAR text: YMAV 190030Z AUTO 28020KT 9999 // SCT024 BKN078 09/06 Q1018
Conditions at: YMAV (AVALON AIRPORT , AU) observed 0030 UTC 19 August 2019
Temperature: 9.0°C (48°F)
Dewpoint: 6.0°C (43°F) [RH = 81%]
Pressure (altimeter): 30.06 inches Hg (1018.0 mb)
Winds: from the W (280 degrees) at 23 MPH (20 knots; 10.3 m/s)
Visibility: 6 or more miles (10+ km)
Ceiling: 7800 feet AGL
Clouds: scattered clouds at 2400 feet AGL
broken clouds at 7800 feet AGL
Weather: no significant weather observed at this time

METAR text: YMAV 190000Z AUTO 28020KT 9999 // SCT057 08/05 Q1018 RF00.0/000.0
Conditions at: YMAV (AVALON AIRPORT , AU) observed 0000 UTC 19 August 2019
Temperature: 8.0°C (46°F)
Dewpoint: 5.0°C (41°F) [RH = 81%]
Pressure (altimeter): 30.06 inches Hg (1018.0 mb)
Winds: from the W (280 degrees) at 23 MPH (20 knots; 10.3 m/s)
Visibility: 6 or more miles (10+ km)
Ceiling: at least 12,000 feet AGL
Clouds: scattered clouds at 5700 feet AGL
Weather: no significant weather observed at this time

METAR text: YMAV 182330Z AUTO 29019KT 9999 // NCD 08/05 Q1017 RF00.0/000.0
Conditions at: YMAV (AVALON AIRPORT , AU) observed 2330 UTC 18 August 2019
Temperature: 8.0°C (46°F)
Dewpoint: 5.0°C (41°F) [RH = 81%]
Pressure (altimeter): 30.03 inches Hg (1017.0 mb)
Winds: from the WNW (290 degrees) at 22 MPH (19 knots; 9.8 m/s)
Visibility: 6 or more miles (10+ km)
Ceiling: at least 12,000 feet AGL
Clouds: sky clear below 12,000 feet AGL
Weather: no significant weather observed at this time

METAR text: YMAV 182302Z AUTO 30018G28KT 9999 // NCD 07/05 Q1017
Conditions at: YMAV (AVALON AIRPORT , AU) observed 2302 UTC 18 August 2019
Temperature: 7.0°C (45°F)
Dewpoint: 5.0°C (41°F) [RH = 87%]
Pressure (altimeter): 30.03 inches Hg (1017.0 mb)
Winds: from the WNW (300 degrees) at 21 MPH (18 knots; 9.3 m/s)
gusting to 32 MPH (28 knots; 14.4 m/s)
Visibility: 6 or more miles (10+ km)
Ceiling: at least 12,000 feet AGL
Clouds: sky clear below 12,000 feet AGL
Weather: no significant weather observed at this time

METAR text: YMAV 182230Z AUTO 29019KT 9999 // NCD 06/04 Q1016 RF00.0/002.2
Conditions at: YMAV (AVALON AIRPORT , AU) observed 2230 UTC 18 August 2019
Temperature: 6.0°C (43°F)
Dewpoint: 4.0°C (39°F) [RH = 87%]
Pressure (altimeter): 30.00 inches Hg (1016.0 mb)
Winds: from the WNW (290 degrees) at 22 MPH (19 knots; 9.8 m/s)
Visibility: 6 or more miles (10+ km)
Ceiling: at least 12,000 feet AGL
Clouds: sky clear below 12,000 feet AGL
Weather: no significant weather observed at this time

METAR text: YMAV 182200Z AUTO 29018KT 9999 // NCD 05/04 Q1016 RF00.0/002.2
Conditions at: YMAV (AVALON AIRPORT , AU) observed 2200 UTC 18 August 2019
Temperature: 5.0°C (41°F)
Dewpoint: 4.0°C (39°F) [RH = 93%]
Pressure (altimeter): 30.00 inches Hg (1016.0 mb)
Winds: from the WNW (290 degrees) at 21 MPH (18 knots; 9.3 m/s)
Visibility: 6 or more miles (10+ km)
Ceiling: at least 12,000 feet AGL
Clouds: sky clear below 12,000 feet AGL
Weather: no significant weather observed at this time

METAR text: YMAV 182130Z AUTO 29017KT 9999 // SCT115 05/03 Q1015 RF00.0/002.2
Conditions at: YMAV (AVALON AIRPORT , AU) observed 2130 UTC 18 August 2019
Temperature: 5.0°C (41°F)
Dewpoint: 3.0°C (37°F) [RH = 87%]
Pressure (altimeter): 29.97 inches Hg (1015.0 mb)
Winds: from the WNW (290 degrees) at 20 MPH (17 knots; 8.7 m/s)
Visibility: 6 or more miles (10+ km)
Ceiling: at least 12,000 feet AGL
Clouds: scattered clouds at 11500 feet AGL
Weather: no significant weather observed at this time

METAR text: YMAV 182100Z AUTO 29017KT 9999 // SCT025 BKN051 BKN090 05/03 Q1015
Conditions at: YMAV (AVALON AIRPORT , AU) observed 2100 UTC 18 August 2019
Temperature: 5.0°C (41°F)
Dewpoint: 3.0°C (37°F) [RH = 87%]
Pressure (altimeter): 29.97 inches Hg (1015.0 mb)
Winds: from the WNW (290 degrees) at 20 MPH (17 knots; 8.7 m/s)
Visibility: 6 or more miles (10+ km)
Ceiling: 5100 feet AGL
Clouds: scattered clouds at 2500 feet AGL
broken clouds at 5100 feet AGL
broken clouds at 9000 feet AGL
Weather: no significant weather observed at this time

METAR text: YMAV 182030Z AUTO 29018KT 9999 // SCT042 SCT089 04/03 Q1014
Conditions at: YMAV (AVALON AIRPORT , AU) observed 2030 UTC 18 August 2019
Temperature: 4.0°C (39°F)
Dewpoint: 3.0°C (37°F) [RH = 93%]
Pressure (altimeter): 29.94 inches Hg (1014.0 mb)
Winds: from the WNW (290 degrees) at 21 MPH (18 knots; 9.3 m/s)
Visibility: 6 or more miles (10+ km)
Ceiling: at least 12,000 feet AGL
Clouds: scattered clouds at 4200 feet AGL
scattered clouds at 8900 feet AGL
Weather: no significant weather observed at this time

METAR text: YMAV 182000Z AUTO 28019KT 9999 // SCT039 05/04 Q1014 RF00.0/002.2
Conditions at: YMAV (AVALON AIRPORT , AU) observed 2000 UTC 18 August 2019
Temperature: 5.0°C (41°F)
Dewpoint: 4.0°C (39°F) [RH = 93%]
Pressure (altimeter): 29.94 inches Hg (1014.0 mb)
Winds: from the W (280 degrees) at 22 MPH (19 knots; 9.8 m/s)
Visibility: 6 or more miles (10+ km)
Ceiling: at least 12,000 feet AGL
Clouds: scattered clouds at 3900 feet AGL
Weather: no significant weather observed at this time

METAR text: YMAV 181930Z AUTO 28019KT 9999 // SCT120 05/03 Q1013 RF00.0/002.2
Conditions at: YMAV (AVALON AIRPORT , AU) observed 1930 UTC 18 August 2019
Temperature: 5.0°C (41°F)
Dewpoint: 3.0°C (37°F) [RH = 87%]
Pressure (altimeter): 29.91 inches Hg (1013.0 mb)
Winds: from the W (280 degrees) at 22 MPH (19 knots; 9.8 m/s)
Visibility: 6 or more miles (10+ km)
Ceiling: at least 12,000 feet AGL
Clouds: scattered clouds at 12000 feet AGL
Weather: no significant weather observed at this time

METAR text: YMAV 181900Z AUTO 28018KT 9999 // NCD 05/03 Q1013 RF00.0/002.2
Conditions at: YMAV (AVALON AIRPORT , AU) observed 1900 UTC 18 August 2019
Temperature: 5.0°C (41°F)
Dewpoint: 3.0°C (37°F) [RH = 87%]
Pressure (altimeter): 29.91 inches Hg (1013.0 mb)
Winds: from the W (280 degrees) at 21 MPH (18 knots; 9.3 m/s)
Visibility: 6 or more miles (10+ km)
Ceiling: at least 12,000 feet AGL
Clouds: sky clear below 12,000 feet AGL
Weather: no significant weather observed at this time

METAR text: YMAV 181830Z AUTO 29019KT 9999 // SCT037 05/03 Q1013 RF00.0/002.2
Conditions at: YMAV (AVALON AIRPORT , AU) observed 1830 UTC 18 August 2019
Temperature: 5.0°C (41°F)
Dewpoint: 3.0°C (37°F) [RH = 87%]
Pressure (altimeter): 29.91 inches Hg (1013.0 mb)
Winds: from the WNW (290 degrees) at 22 MPH (19 knots; 9.8 m/s)
Visibility: 6 or more miles (10+ km)
Ceiling: at least 12,000 feet AGL
Clouds: scattered clouds at 3700 feet AGL
Weather: no significant weather observed at this time

METAR text: YMAV 181800Z AUTO 30015KT 9999 // NCD 05/04 Q1012 RF00.0/002.2
Conditions at: YMAV (AVALON AIRPORT , AU) observed 1800 UTC 18 August 2019
Temperature: 5.0°C (41°F)
Dewpoint: 4.0°C (39°F) [RH = 93%]
Pressure (altimeter): 29.88 inches Hg (1012.0 mb)
Winds: from the WNW (300 degrees) at 17 MPH (15 knots; 7.7 m/s)
Visibility: 6 or more miles (10+ km)
Ceiling: at least 12,000 feet AGL
Clouds: sky clear below 12,000 feet AGL
Weather: no significant weather observed at this time

METAR text: YMAV 181730Z AUTO 29019KT 9999 // SCT058 SCT084 BKN105 05/04 Q1012
Conditions at: YMAV (AVALON AIRPORT , AU) observed 1730 UTC 18 August 2019
Temperature: 5.0°C (41°F)
Dewpoint: 4.0°C (39°F) [RH = 93%]
Pressure (altimeter): 29.88 inches Hg (1012.0 mb)
Winds: from the WNW (290 degrees) at 22 MPH (19 knots; 9.8 m/s)
Visibility: 6 or more miles (10+ km)
Ceiling: 10500 feet AGL
Clouds: scattered clouds at 5800 feet AGL
scattered clouds at 8400 feet AGL
broken clouds at 10500 feet AGL
Weather: no significant weather observed at this time

METAR text: YMAV 181700Z AUTO 29020KT 9999 // SCT018 SCT039 SCT115 06/04 Q1012
Conditions at: YMAV (AVALON AIRPORT , AU) observed 1700 UTC 18 August 2019
Temperature: 6.0°C (43°F)
Dewpoint: 4.0°C (39°F) [RH = 87%]
Pressure (altimeter): 29.88 inches Hg (1012.0 mb)
Winds: from the WNW (290 degrees) at 23 MPH (20 knots; 10.3 m/s)
Visibility: 6 or more miles (10+ km)
Ceiling: at least 12,000 feet AGL
Clouds: scattered clouds at 1800 feet AGL
scattered clouds at 3900 feet AGL
scattered clouds at 11500 feet AGL
Weather: no significant weather observed at this time

METAR text: YMAV 181630Z AUTO 29015KT 9999 // SCT115 06/04 Q1011 RF00.0/002.2
Conditions at: YMAV (AVALON AIRPORT , AU) observed 1630 UTC 18 August 2019
Temperature: 6.0°C (43°F)
Dewpoint: 4.0°C (39°F) [RH = 87%]
Pressure (altimeter): 29.85 inches Hg (1011.0 mb)
Winds: from the WNW (290 degrees) at 17 MPH (15 knots; 7.7 m/s)
Visibility: 6 or more miles (10+ km)
Ceiling: at least 12,000 feet AGL
Clouds: scattered clouds at 11500 feet AGL
Weather: no significant weather observed at this time

METAR text: YMAV 181600Z AUTO 29020KT 9999 // NCD 06/04 Q1011 RF00.0/002.2
Conditions at: YMAV (AVALON AIRPORT , AU) observed 1600 UTC 18 August 2019
Temperature: 6.0°C (43°F)
Dewpoint: 4.0°C (39°F) [RH = 87%]
Pressure (altimeter): 29.85 inches Hg (1011.0 mb)
Winds: from the WNW (290 degrees) at 23 MPH (20 knots; 10.3 m/s)
Visibility: 6 or more miles (10+ km)
Ceiling: at least 12,000 feet AGL
Clouds: sky clear below 12,000 feet AGL
Weather: no significant weather observed at this time

METAR text: YMAV 181530Z AUTO 29019KT 9999 // NCD 06/05 Q1011 RF00.0/002.2
Conditions at: YMAV (AVALON AIRPORT , AU) observed 1530 UTC 18 August 2019
Temperature: 6.0°C (43°F)
Dewpoint: 5.0°C (41°F) [RH = 93%]
Pressure (altimeter): 29.85 inches Hg (1011.0 mb)
Winds: from the WNW (290 degrees) at 22 MPH (19 knots; 9.8 m/s)
Visibility: 6 or more miles (10+ km)
Ceiling: at least 12,000 feet AGL
Clouds: sky clear below 12,000 feet AGL
Weather: no significant weather observed at this time

METAR text: YMAV 181500Z AUTO 29017KT 9999 // SCT070 SCT090 BKN125 06/04 Q1011
Conditions at: YMAV (AVALON AIRPORT , AU) observed 1500 UTC 18 August 2019
Temperature: 6.0°C (43°F)
Dewpoint: 4.0°C (39°F) [RH = 87%]
Pressure (altimeter): 29.85 inches Hg (1011.0 mb)
Winds: from the WNW (290 degrees) at 20 MPH (17 knots; 8.7 m/s)
Visibility: 6 or more miles (10+ km)
Ceiling: 12500 feet AGL
Clouds: scattered clouds at 7000 feet AGL
scattered clouds at 9000 feet AGL
broken clouds at 12500 feet AGL
Weather: no significant weather observed at this time

METAR text: YMAV 181430Z AUTO 29017KT 9999 // SCT026 SCT100 BKN120 06/04 Q1010
Conditions at: YMAV (AVALON AIRPORT , AU) observed 1430 UTC 18 August 2019
Temperature: 6.0°C (43°F)
Dewpoint: 4.0°C (39°F) [RH = 87%]
Pressure (altimeter): 29.82 inches Hg (1010.0 mb)
Winds: from the WNW (290 degrees) at 20 MPH (17 knots; 8.7 m/s)
Visibility: 6 or more miles (10+ km)
Ceiling: 12000 feet AGL
Clouds: scattered clouds at 2600 feet AGL
scattered clouds at 10000 feet AGL
broken clouds at 12000 feet AGL
Weather: no significant weather observed at this time

METAR text: YMAV 181400Z AUTO 29020KT 9999 // SCT022 BKN033 BKN047 07/05 Q1010
Conditions at: YMAV (AVALON AIRPORT , AU) observed 1400 UTC 18 August 2019
Temperature: 7.0°C (45°F)
Dewpoint: 5.0°C (41°F) [RH = 87%]
Pressure (altimeter): 29.82 inches Hg (1010.0 mb)
Winds: from the WNW (290 degrees) at 23 MPH (20 knots; 10.3 m/s)
Visibility: 6 or more miles (10+ km)
Ceiling: 3300 feet AGL
Clouds: scattered clouds at 2200 feet AGL
broken clouds at 3300 feet AGL
broken clouds at 4700 feet AGL
Weather: no significant weather observed at this time

METAR text: YMAV 181330Z AUTO 29017KT 9999 // SCT034 SCT054 06/05 Q1010
Conditions at: YMAV (AVALON AIRPORT , AU) observed 1330 UTC 18 August 2019
Temperature: 6.0°C (43°F)
Dewpoint: 5.0°C (41°F) [RH = 93%]
Pressure (altimeter): 29.82 inches Hg (1010.0 mb)
Winds: from the WNW (290 degrees) at 20 MPH (17 knots; 8.7 m/s)
Visibility: 6 or more miles (10+ km)
Ceiling: at least 12,000 feet AGL
Clouds: scattered clouds at 3400 feet AGL
scattered clouds at 5400 feet AGL
Weather: no significant weather observed at this time

METAR text: YMAV 181300Z AUTO 28018KT 9999 // BKN110 07/05 Q1009 RF00.0/002.0
Conditions at: YMAV (AVALON AIRPORT , AU) observed 1300 UTC 18 August 2019
Temperature: 7.0°C (45°F)
Dewpoint: 5.0°C (41°F) [RH = 87%]
Pressure (altimeter): 29.79 inches Hg (1009.0 mb)
Winds: from the W (280 degrees) at 21 MPH (18 knots; 9.3 m/s)
Visibility: 6 or more miles (10+ km)
Ceiling: 11000 feet AGL
Clouds: broken clouds at 11000 feet AGL
Weather: no significant weather observed at this time

METAR text: YMAV 181230Z AUTO 27017KT 9999 // SCT019 SCT041 BKN057 07/05 Q1009
Conditions at: YMAV (AVALON AIRPORT , AU) observed 1230 UTC 18 August 2019
Temperature: 7.0°C (45°F)
Dewpoint: 5.0°C (41°F) [RH = 87%]
Pressure (altimeter): 29.79 inches Hg (1009.0 mb)
Winds: from the W (270 degrees) at 20 MPH (17 knots; 8.7 m/s)
Visibility: 6 or more miles (10+ km)
Ceiling: 5700 feet AGL
Clouds: scattered clouds at 1900 feet AGL
scattered clouds at 4100 feet AGL
broken clouds at 5700 feet AGL
Weather: no significant weather observed at this time

METAR text: YMAV 181203Z AUTO 28022G32KT 9999 // SCT017 SCT031 BKN048 07/06 Q1008
Conditions at: YMAV (AVALON AIRPORT , AU) observed 1203 UTC 18 August 2019
Temperature: 7.0°C (45°F)
Dewpoint: 6.0°C (43°F) [RH = 93%]
Pressure (altimeter): 29.76 inches Hg (1008.0 mb)
Winds: from the W (280 degrees) at 25 MPH (22 knots; 11.3 m/s)
gusting to 37 MPH (32 knots; 16.5 m/s)
Visibility: 6 or more miles (10+ km)
Ceiling: 4800 feet AGL
Clouds: scattered clouds at 1700 feet AGL
scattered clouds at 3100 feet AGL
broken clouds at 4800 feet AGL
Weather: no significant weather observed at this time

METAR text: YMAV 181200Z AUTO 28023KT 9999 // SCT017 SCT029 BKN041 07/06 Q1008
Conditions at: YMAV (AVALON AIRPORT , AU) observed 1200 UTC 18 August 2019
Temperature: 7.0°C (45°F)
Dewpoint: 6.0°C (43°F) [RH = 93%]
Pressure (altimeter): 29.76 inches Hg (1008.0 mb)
Winds: from the W (280 degrees) at 26 MPH (23 knots; 11.8 m/s)
Visibility: 6 or more miles (10+ km)
Ceiling: 4100 feet AGL
Clouds: scattered clouds at 1700 feet AGL
scattered clouds at 2900 feet AGL
broken clouds at 4100 feet AGL
Weather: no significant weather observed at this time

METAR text: YMAV 181130Z AUTO 28023KT 9999 // BKN041 BKN051 BKN071 07/06 Q1008
Conditions at: YMAV (AVALON AIRPORT , AU) observed 1130 UTC 18 August 2019
Temperature: 7.0°C (45°F)
Dewpoint: 6.0°C (43°F) [RH = 93%]
Pressure (altimeter): 29.76 inches Hg (1008.0 mb)
Winds: from the W (280 degrees) at 26 MPH (23 knots; 11.8 m/s)
Visibility: 6 or more miles (10+ km)
Ceiling: 4100 feet AGL
Clouds: broken clouds at 4100 feet AGL
broken clouds at 5100 feet AGL
broken clouds at 7100 feet AGL
Weather: no significant weather observed at this time

METAR text: YMAV 181100Z AUTO 27027G39KT 9999 // SCT044 BKN078 OVC098 07/05 Q1006
Conditions at: YMAV (AVALON AIRPORT , AU) observed 1100 UTC 18 August 2019
Temperature: 7.0°C (45°F)
Dewpoint: 5.0°C (41°F) [RH = 87%]
Pressure (altimeter): 29.70 inches Hg (1006.0 mb)
Winds: from the W (270 degrees) at 31 MPH (27 knots; 13.9 m/s)
gusting to 45 MPH (39 knots; 20.1 m/s)
Visibility: 6 or more miles (10+ km)
Ceiling: 7800 feet AGL
Clouds: scattered clouds at 4400 feet AGL
broken clouds at 7800 feet AGL
overcast cloud deck at 9800 feet AGL
Weather: no significant weather observed at this time

METAR text: YMAV 181030Z AUTO 28030G40KT 9999 // BKN020 OVC025 07/05 Q1006
Conditions at: YMAV (AVALON AIRPORT , AU) observed 1030 UTC 18 August 2019
Temperature: 7.0°C (45°F)
Dewpoint: 5.0°C (41°F) [RH = 87%]
Pressure (altimeter): 29.70 inches Hg (1006.0 mb)
Winds: from the W (280 degrees) at 34 MPH (30 knots; 15.4 m/s)
gusting to 46 MPH (40 knots; 20.6 m/s)
Visibility: 6 or more miles (10+ km)
Ceiling: 2000 feet AGL
Clouds: broken clouds at 2000 feet AGL
overcast cloud deck at 2500 feet AGL
Weather: no significant weather observed at this time

METAR text: YMAV 181012Z AUTO 28029G39KT 9999 // BKN022 BKN029 08/06 Q1005
Conditions at: YMAV (AVALON AIRPORT , AU) observed 1012 UTC 18 August 2019
Temperature: 8.0°C (46°F)
Dewpoint: 6.0°C (43°F) [RH = 87%]
Pressure (altimeter): 29.68 inches Hg (1005.0 mb)
Winds: from the W (280 degrees) at 33 MPH (29 knots; 14.9 m/s)
gusting to 45 MPH (39 knots; 20.1 m/s)
Visibility: 6 or more miles (10+ km)
Ceiling: 2200 feet AGL
Clouds: broken clouds at 2200 feet AGL
broken clouds at 2900 feet AGL
Weather: no significant weather observed at this time

METAR text: YMAV 181000Z AUTO 30025KT 9999 // SCT020 BKN029 08/06 Q1005
Conditions at: YMAV (AVALON AIRPORT , AU) observed 1000 UTC 18 August 2019
Temperature: 8.0°C (46°F)
Dewpoint: 6.0°C (43°F) [RH = 87%]
Pressure (altimeter): 29.68 inches Hg (1005.0 mb)
Winds: from the WNW (300 degrees) at 29 MPH (25 knots; 12.9 m/s)
Visibility: 6 or more miles (10+ km)
Ceiling: 2900 feet AGL
Clouds: scattered clouds at 2000 feet AGL
broken clouds at 2900 feet AGL
Weather: no significant weather observed at this time

METAR text: YMAV 180930Z AUTO 30024G34KT 9999 // SCT024 BKN030 OVC040 09/06 Q1004
Conditions at: YMAV (AVALON AIRPORT , AU) observed 0930 UTC 18 August 2019
Temperature: 9.0°C (48°F)
Dewpoint: 6.0°C (43°F) [RH = 81%]
Pressure (altimeter): 29.65 inches Hg (1004.0 mb)
Winds: from the WNW (300 degrees) at 28 MPH (24 knots; 12.3 m/s)
gusting to 39 MPH (34 knots; 17.5 m/s)
Visibility: 6 or more miles (10+ km)
Ceiling: 3000 feet AGL
Clouds: scattered clouds at 2400 feet AGL
broken clouds at 3000 feet AGL
overcast cloud deck at 4000 feet AGL
Weather: no significant weather observed at this time

METAR text: YMAV 180900Z AUTO 29027G37KT 9999 // BKN040 BKN048 OVC056 10/05 Q1004
Conditions at: YMAV (AVALON AIRPORT , AU) observed 0900 UTC 18 August 2019
Temperature: 10.0°C (50°F)
Dewpoint: 5.0°C (41°F) [RH = 71%]
Pressure (altimeter): 29.65 inches Hg (1004.0 mb)
Winds: from the WNW (290 degrees) at 31 MPH (27 knots; 13.9 m/s)
gusting to 43 MPH (37 knots; 19.0 m/s)
Visibility: 6 or more miles (10+ km)
Ceiling: 4000 feet AGL
Clouds: broken clouds at 4000 feet AGL
broken clouds at 4800 feet AGL
overcast cloud deck at 5600 feet AGL
Weather: no significant weather observed at this time

METAR text: YMAV 180856Z AUTO 29027G37KT 9999 // BKN042 OVC056 10/05 Q1004
Conditions at: YMAV (AVALON AIRPORT , AU) observed 0856 UTC 18 August 2019
Temperature: 10.0°C (50°F)
Dewpoint: 5.0°C (41°F) [RH = 71%]
Pressure (altimeter): 29.65 inches Hg (1004.0 mb)
Winds: from the WNW (290 degrees) at 31 MPH (27 knots; 13.9 m/s)
gusting to 43 MPH (37 knots; 19.0 m/s)
Visibility: 6 or more miles (10+ km)
Ceiling: 4200 feet AGL
Clouds: broken clouds at 4200 feet AGL
overcast cloud deck at 5600 feet AGL
Weather: no significant weather observed at this time

METAR text: YMAV 180853Z AUTO 30028KT 9999 // BKN042 BKN049 OVC056 10/05 Q1004
Conditions at: YMAV (AVALON AIRPORT , AU) observed 0853 UTC 18 August 2019
Temperature: 10.0°C (50°F)
Dewpoint: 5.0°C (41°F) [RH = 71%]
Pressure (altimeter): 29.65 inches Hg (1004.0 mb)
Winds: from the WNW (300 degrees) at 32 MPH (28 knots; 14.4 m/s)
Visibility: 6 or more miles (10+ km)
Ceiling: 4200 feet AGL
Clouds: broken clouds at 4200 feet AGL
broken clouds at 4900 feet AGL
overcast cloud deck at 5600 feet AGL
Weather: no significant weather observed at this time

METAR text: YMAV 180830Z AUTO 32016G26KT 9999 // BKN044 11/05 Q1004 RF00.0/001.4
Conditions at: YMAV (AVALON AIRPORT , AU) observed 0830 UTC 18 August 2019
Temperature: 11.0°C (52°F)
Dewpoint: 5.0°C (41°F) [RH = 66%]
Pressure (altimeter): 29.65 inches Hg (1004.0 mb)
Winds: from the NW (320 degrees) at 18 MPH (16 knots; 8.2 m/s)
gusting to 30 MPH (26 knots; 13.4 m/s)
Visibility: 6 or more miles (10+ km)
Ceiling: 4400 feet AGL
Clouds: broken clouds at 4400 feet AGL
Weather: no significant weather observed at this time

METAR text: YMAV 180827Z AUTO 32015G26KT 9999 // SCT046 11/06 Q1003 RF00.0/001.4
Conditions at: YMAV (AVALON AIRPORT , AU) observed 0827 UTC 18 August 2019
Temperature: 11.0°C (52°F)
Dewpoint: 6.0°C (43°F) [RH = 71%]
Pressure (altimeter): 29.62 inches Hg (1003.0 mb)
Winds: from the NW (320 degrees) at 17 MPH (15 knots; 7.7 m/s)
gusting to 30 MPH (26 knots; 13.4 m/s)
Visibility: 6 or more miles (10+ km)
Ceiling: at least 12,000 feet AGL
Clouds: scattered clouds at 4600 feet AGL
Weather: no significant weather observed at this time

METAR text: YMAV 180800Z AUTO 33010KT 9999 // NCD 11/06 Q1003 RF00.0/001.4
Conditions at: YMAV (AVALON AIRPORT , AU) observed 0800 UTC 18 August 2019
Temperature: 11.0°C (52°F)
Dewpoint: 6.0°C (43°F) [RH = 71%]
Pressure (altimeter): 29.62 inches Hg (1003.0 mb)
Winds: from the NNW (330 degrees) at 12 MPH (10 knots; 5.1 m/s)
Visibility: 6 or more miles (10+ km)
Ceiling: at least 12,000 feet AGL
Clouds: sky clear below 12,000 feet AGL
Weather: no significant weather observed at this time

METAR text: YMAV 180730Z AUTO 33013KT 9999 // NCD 11/06 Q1003 RF00.0/001.4
Conditions at: YMAV (AVALON AIRPORT , AU) observed 0730 UTC 18 August 2019
Temperature: 11.0°C (52°F)
Dewpoint: 6.0°C (43°F) [RH = 71%]
Pressure (altimeter): 29.62 inches Hg (1003.0 mb)
Winds: from the NNW (330 degrees) at 15 MPH (13 knots; 6.7 m/s)
Visibility: 6 or more miles (10+ km)
Ceiling: at least 12,000 feet AGL
Clouds: sky clear below 12,000 feet AGL
Weather: no significant weather observed at this time

METAR text: YMAV 180700Z AUTO 34013KT 9999 // SCT048 SCT093 12/07 Q1003
Conditions at: YMAV (AVALON AIRPORT , AU) observed 0700 UTC 18 August 2019
Temperature: 12.0°C (54°F)
Dewpoint: 7.0°C (45°F) [RH = 71%]
Pressure (altimeter): 29.62 inches Hg (1003.0 mb)
Winds: from the NNW (340 degrees) at 15 MPH (13 knots; 6.7 m/s)
Visibility: 6 or more miles (10+ km)
Ceiling: at least 12,000 feet AGL
Clouds: scattered clouds at 4800 feet AGL
scattered clouds at 9300 feet AGL
Weather: no significant weather observed at this time

Forecast for: YMAV (AVALON AIRPORT , AU)
Text: TAF YMAV 191712Z 1918/2018 29014KT 9999 SCT025
Forecast period: 1800 to 2100 UTC 19 August 2019
Forecast type: FROM: standard forecast or significant change
Winds: from the WNW (290 degrees) at 16 MPH (14 knots; 7.2 m/s)
Visibility: 6 or more miles 10+ km)
Ceiling: at least 12,000 feet AGL
Clouds: scattered clouds at 2500 feet AGL
Weather: no significant weather forecast for this period
Text: BECMG 1921/1923 29022G34KT 9999 SCT025
Forecast period: 2100 UTC 19 August 2019 to 1200 UTC 20 August 2019
Forecast type: BECOMING: Conditions expected to become as follows by 2300 UTC 19 August 2019
Winds: from the WNW (290 degrees) at 25 MPH (22 knots; 11.3 m/s)
gusting to 39 MPH (34 knots; 17.5 m/s)
Visibility: 6 or more miles 10+ km)
Ceiling: at least 12,000 feet AGL
Clouds: scattered clouds at 2500 feet AGL
Weather: no significant weather forecast for this period
Text: FM201200 28018G28KT 9999 -SHRA FEW015 BKN020
Forecast period: 1200 to 1800 UTC 20 August 2019
Forecast type: FROM: standard forecast or significant change
Winds: from the W (280 degrees) at 21 MPH (18 knots; 9.3 m/s)
gusting to 32 MPH (28 knots; 14.4 m/s)
Visibility: 6 or more miles 10+ km)
Ceiling: 2000 feet AGL
Clouds: few clouds at 1500 feet AGL
broken clouds at 2000 feet AGL
Weather: -SHRA  (light rain showers)